createdAt,value
2022-11-27T15:51:15.978Z,87.75
2022-11-27T15:54:20.428Z,86.39
2022-11-27T15:57:24.393Z,85.46
2022-11-27T16:00:28.034Z,85.15
2022-11-27T16:03:31.723Z,84.28
2022-11-27T16:06:39.573Z,84.63
2022-11-27T16:09:43.296Z,84.87
2022-11-27T16:12:46.926Z,84.62
2022-11-27T16:15:50.521Z,84.00
2022-11-27T16:18:59.647Z,84.04
2022-11-27T16:22:04.687Z,83.72
2022-11-27T16:25:09.089Z,83.32
2022-11-27T16:28:12.685Z,84.16
2022-11-27T16:31:16.255Z,83.25
2022-11-27T16:34:19.800Z,83.12
2022-11-27T16:37:26.028Z,83.32
2022-11-27T16:40:29.931Z,82.98
2022-11-27T16:43:36.328Z,83.53
2022-11-27T16:46:41.429Z,84.30
2022-11-27T16:49:45.188Z,82.92
2022-11-27T16:52:54.556Z,83.59
2022-11-27T16:56:00.589Z,84.25
2022-11-27T16:59:08.579Z,83.84
2022-11-27T17:02:12.840Z,84.71
2022-11-27T17:05:16.717Z,84.33
2022-11-27T17:08:21.781Z,84.99
2022-11-27T17:11:27.707Z,84.28
2022-11-27T17:14:31.484Z,84.84
2022-11-27T17:17:39.959Z,85.79
2022-11-27T17:20:44.642Z,85.52
2022-11-27T17:23:49.757Z,85.71
2022-11-27T17:26:55.306Z,86.41
2022-11-27T17:30:07.292Z,86.01
2022-11-27T17:33:10.968Z,86.24
2022-11-27T17:36:15.646Z,85.65
2022-11-27T17:39:20.982Z,85.57
2022-11-27T17:42:24.627Z,84.94
2022-11-27T17:45:28.352Z,84.35
2022-11-27T17:48:32.052Z,84.70
2022-11-27T17:51:37.184Z,85.63
2022-11-27T17:54:42.144Z,85.97
2022-11-27T17:57:45.884Z,85.21
2022-11-27T18:00:49.756Z,84.93
2022-11-27T18:03:56.192Z,85.25
2022-11-27T18:07:00.954Z,84.88
2022-11-27T18:10:09.067Z,85.44
2022-11-27T18:13:12.777Z,85.57
2022-11-27T18:16:18.932Z,84.66
2022-11-27T18:19:22.779Z,84.79
2022-11-27T18:22:26.568Z,85.38
2022-11-27T18:25:31.839Z,85.47
2022-11-27T18:28:35.874Z,85.93
2022-11-27T18:31:41.298Z,85.66
2022-11-27T18:34:46.249Z,85.20
2022-11-27T18:37:49.900Z,85.07
2022-11-27T18:40:55.103Z,85.16
2022-11-27T18:43:59.193Z,85.21
2022-11-27T18:47:04.340Z,85.27
2022-11-27T18:50:09.268Z,85.75
2022-11-27T18:53:12.959Z,84.40
2022-11-27T18:56:20.627Z,84.11
2022-11-27T18:59:24.648Z,84.62
2022-11-27T19:02:29.518Z,85.20
2022-11-27T19:05:33.087Z,84.90
2022-11-27T19:08:37.073Z,85.90
2022-11-27T19:11:42.630Z,85.28
2022-11-27T19:14:46.265Z,85.26
2022-11-27T19:17:50.045Z,84.57
2022-11-27T19:20:55.117Z,84.56
2022-11-27T19:24:01.128Z,83.40
2022-11-27T19:27:06.184Z,83.17
2022-11-27T19:30:10.654Z,82.10
2022-11-27T19:33:14.511Z,82.72
2022-11-27T19:36:18.223Z,83.59
2022-11-27T19:39:21.972Z,83.04
2022-11-27T19:42:27.253Z,83.16
2022-11-27T19:45:31.238Z,82.94
2022-11-27T19:48:35.212Z,83.09
2022-11-27T19:51:40.064Z,82.49
2022-11-27T19:54:45.472Z,82.65
2022-11-27T19:57:50.464Z,82.25
2022-11-27T20:00:54.988Z,82.53
2022-11-27T20:03:59.021Z,82.29
2022-11-27T20:07:04.835Z,83.30
2022-11-27T20:10:09.171Z,82.13
2022-11-27T20:13:14.271Z,82.08
2022-11-27T20:16:20.756Z,82.90
2022-11-27T20:19:26.070Z,82.66
2022-11-27T20:22:29.729Z,83.19
2022-11-27T20:25:33.872Z,82.16
2022-11-27T20:28:41.163Z,82.50
2022-11-27T20:31:45.871Z,81.57
2022-11-27T20:34:49.775Z,80.60
2022-11-27T20:37:53.480Z,81.03
2022-11-27T20:40:57.221Z,81.58
2022-11-27T20:44:04.714Z,80.98
2022-11-27T20:47:08.477Z,81.52
2022-11-27T20:50:13.076Z,81.15
2022-11-27T20:53:16.889Z,81.35
2022-11-27T20:56:21.614Z,80.84
2022-11-27T20:59:26.590Z,80.49
2022-11-27T21:02:30.212Z,80.79
2022-11-27T21:05:34.129Z,80.89
2022-11-27T21:08:37.958Z,81.30
2022-11-27T21:11:42.161Z,81.23
2022-11-27T21:14:47.615Z,81.71
2022-11-27T21:17:51.286Z,80.75
2022-11-27T21:20:54.975Z,81.17
2022-11-27T21:23:58.734Z,80.65
2022-11-27T21:27:02.448Z,80.56
